Time;durP1;ratioP1;P1;durP2;ratioP2;P2;SDS_P1;SDS_P2;PMS_P1;PMS_P2;Temp;Humidity;BMP_temperature;BMP_pressure;BME280_temperature;BME280_humidity;BME280_pressure;Samples;Min_cycle;Max_cycle;Signal;HPM_P1;HPM_P2
2023/08/21 00:01:41;;;;;;;1.50;1.23;;;26.30;1.00;;;;;;5132877;28;20507;-52
2023/08/21 00:04:09;;;;;;;2.67;1.20;;;26.30;1.00;;;;;;5133381;28;20871;-50
2023/08/21 00:06:36;;;;;;;2.50;1.20;;;26.20;99.90;;;;;;5134531;27;20422;-55
2023/08/21 00:09:03;;;;;;;1.60;1.10;;;26.30;99.90;;;;;;5138335;27;20718;-51
2023/08/21 00:11:31;;;;;;;1.70;1.25;;;26.30;99.90;;;;;;5138935;27;20418;-53
2023/08/21 00:13:58;;;;;;;3.13;1.20;;;26.20;32.90;;;;;;5138883;27;20779;-50
2023/08/21 00:16:28;;;;;;;2.40;1.10;;;26.30;1.00;;;;;;5139265;27;20721;-53
2023/08/21 00:18:55;;;;;;;2.22;1.30;;;26.30;99.90;;;;;;5139102;27;20423;-52
2023/08/21 00:21:22;;;;;;;1.63;1.20;;;26.30;1.00;;;;;;5138447;27;20432;-53
2023/08/21 00:23:49;;;;;;;1.83;1.10;;;26.30;1.00;;;;;;5139012;27;20410;-51
2023/08/21 00:26:16;;;;;;;1.40;1.20;;;26.30;1.00;;;;;;5138595;27;20433;-53
2023/08/21 00:28:43;;;;;;;2.65;1.40;;;26.20;99.90;;;;;;5138779;27;20433;-48
2023/08/21 00:31:10;;;;;;;1.80;1.10;;;26.20;3.30;;;;;;5138749;27;20430;-47
2023/08/21 00:33:39;;;;;;;1.90;1.30;;;26.10;99.90;;;;;;5138671;27;20418;-49
2023/08/21 00:36:06;;;;;;;1.90;1.20;;;26.00;1.00;;;;;;5139343;27;20410;-46
2023/08/21 00:38:33;;;;;;;1.55;1.20;;;26.00;1.00;;;;;;5138462;27;20403;-51
2023/08/21 00:41:00;;;;;;;2.22;1.10;;;26.00;1.00;;;;;;5138284;27;20434;-47
2023/08/21 00:43:27;;;;;;;1.50;1.20;;;26.00;1.00;;;;;;5138287;27;20426;-49
2023/08/21 00:45:54;;;;;;;1.92;1.40;;;25.90;1.00;;;;;;5138140;27;20456;-53
2023/08/21 00:48:22;;;;;;;1.90;1.20;;;25.90;1.00;;;;;;5137773;27;20864;-51
2023/08/21 00:50:51;;;;;;;1.95;1.10;;;25.90;1.00;;;;;;5138000;27;21091;-51
2023/08/21 00:53:18;;;;;;;1.77;1.17;;;25.80;1.00;;;;;;5138331;27;20422;-51
2023/08/21 00:55:46;;;;;;;2.08;1.15;;;25.80;1.00;;;;;;5138639;27;20413;-55
2023/08/21 00:58:14;;;;;;;1.75;1.30;;;25.90;1.00;;;;;;5137562;27;20423;-53
2023/08/21 01:00:42;;;;;;;2.33;1.10;;;25.90;1.00;;;;;;5136854;27;20844;-52
2023/08/21 01:03:10;;;;;;;1.67;1.10;;;25.90;1.00;;;;;;5136729;27;20471;-50
2023/08/21 01:05:37;;;;;;;1.90;1.10;;;25.90;1.00;;;;;;5137243;27;20410;-53
2023/08/21 01:08:11;;;;;;;1.50;1.10;;;25.80;1.00;;;;;;5137014;27;20438;-50
2023/08/21 01:10:45;;;;;;;1.52;1.10;;;25.80;1.00;;;;;;5135918;27;20418;-53
2023/08/21 01:13:22;;;;;;;2.00;1.20;;;25.70;1.00;;;;;;5137765;27;20883;-50
2023/08/21 01:15:52;;;;;;;2.00;1.20;;;25.70;1.00;;;;;;5137710;27;20445;-49
2023/08/21 01:18:20;;;;;;;1.92;1.00;;;25.70;1.00;;;;;;5136997;27;20418;-48
2023/08/21 01:20:48;;;;;;;2.28;1.10;;;25.60;1.00;;;;;;5137237;27;20809;-53
2023/08/21 01:23:30;;;;;;;1.80;1.20;;;25.60;1.00;;;;;;5137997;27;20864;-48
2023/08/21 01:25:57;;;;;;;2.03;1.10;;;25.50;1.00;;;;;;5137312;27;20538;-54
2023/08/21 01:28:24;;;;;;;1.50;1.20;;;25.50;84.80;;;;;;5136992;27;20441;-52
2023/08/21 01:30:54;;;;;;;2.20;1.10;;;25.50;32.80;;;;;;5137906;27;20426;-48
2023/08/21 01:33:24;;;;;;;1.70;1.25;;;25.40;99.90;;;;;;5136940;27;20429;-49
2023/08/21 01:35:52;;;;;;;2.20;1.30;;;25.30;99.90;;;;;;5138082;27;20846;-53
2023/08/21 01:38:19;;;;;;;1.80;1.13;;;25.30;99.90;;;;;;5136678;27;20411;-52
2023/08/21 01:40:49;;;;;;;1.90;1.27;;;25.40;99.90;;;;;;5136432;27;20441;-50
2023/08/21 01:43:16;;;;;;;1.42;1.10;;;25.50;1.00;;;;;;5135850;27;20418;-53
2023/08/21 01:45:43;;;;;;;1.50;1.10;;;25.50;1.00;;;;;;5133999;27;20833;-48
2023/08/21 01:48:11;;;;;;;2.90;1.30;;;25.50;1.00;;;;;;5134791;27;20718;-50
2023/08/21 01:50:38;;;;;;;1.20;1.00;;;25.30;36.20;;;;;;5136014;27;20414;-53
2023/08/21 01:53:05;;;;;;;2.10;1.30;;;25.30;99.90;;;;;;5136313;27;20423;-52
2023/08/21 01:55:33;;;;;;;1.67;1.30;;;25.20;99.90;;;;;;5136459;27;20418;-54
2023/08/21 01:58:01;;;;;;;2.40;1.10;;;25.20;99.90;;;;;;5136666;27;20833;-54
2023/08/21 02:00:29;;;;;;;1.60;1.20;;;25.10;99.90;;;;;;5135157;27;20433;-52
2023/08/21 02:02:56;;;;;;;1.50;1.23;;;25.10;99.90;;;;;;5135887;27;20418;-50
2023/08/21 02:05:23;;;;;;;1.73;1.20;;;25.10;99.90;;;;;;5135895;27;20417;-52
2023/08/21 02:07:50;;;;;;;1.83;1.20;;;25.10;99.90;;;;;;5136258;27;20535;-50
2023/08/21 02:10:17;;;;;;;2.17;1.13;;;25.10;99.90;;;;;;5135616;27;20431;-51
2023/08/21 02:12:44;;;;;;;1.55;1.20;;;25.10;99.90;;;;;;5136303;27;20418;-54
2023/08/21 02:15:12;;;;;;;2.47;1.30;;;25.10;99.90;;;;;;5136160;27;20410;-49
2023/08/21 02:17:42;;;;;;;1.50;1.17;;;25.00;1.00;;;;;;5136232;27;20837;-50
2023/08/21 02:20:11;;;;;;;1.40;1.10;;;25.00;1.00;;;;;;5135079;27;20483;-52
2023/08/21 02:22:38;;;;;;;1.90;1.20;;;25.00;1.00;;;;;;5136073;27;20425;-50
2023/08/21 02:25:05;;;;;;;2.10;1.30;;;25.00;1.00;;;;;;5136471;27;20727;-52
2023/08/21 02:27:33;;;;;;;2.17;1.17;;;25.00;1.00;;;;;;5135469;27;20423;-51
2023/08/21 02:30:00;;;;;;;2.10;1.30;;;25.10;99.90;;;;;;5135536;27;20430;-52
2023/08/21 02:32:28;;;;;;;1.90;1.10;;;25.10;99.90;;;;;;5136604;27;20415;-50
2023/08/21 02:34:55;;;;;;;1.40;1.10;;;25.10;99.90;;;;;;5136729;27;20810;-52
2023/08/21 02:37:22;;;;;;;2.00;1.10;;;25.10;99.90;;;;;;5136149;27;20841;-50
2023/08/21 02:39:49;;;;;;;2.22;1.23;;;25.10;99.90;;;;;;5135954;27;20702;-48
2023/08/21 02:42:17;;;;;;;2.00;1.20;;;25.10;99.90;;;;;;5136644;27;20418;-54
2023/08/21 02:44:44;;;;;;;1.50;1.20;;;25.00;99.90;;;;;;5136598;27;20425;-52
2023/08/21 02:47:11;;;;;;;1.50;1.20;;;25.00;99.90;;;;;;5136021;27;20418;-53
2023/08/21 02:49:39;;;;;;;2.50;1.10;;;24.90;99.90;;;;;;5136079;27;20431;-49
2023/08/21 02:52:06;;;;;;;1.55;1.10;;;24.90;99.90;;;;;;5135511;27;20886;-50
2023/08/21 02:54:33;;;;;;;2.80;1.27;;;24.80;1.00;;;;;;5136396;27;20422;-53
2023/08/21 02:57:00;;;;;;;2.30;1.20;;;24.70;1.00;;;;;;5135923;27;20426;-53
2023/08/21 02:59:27;;;;;;;1.53;1.10;;;24.80;1.00;;;;;;5135234;27;20532;-49
2023/08/21 03:01:54;;;;;;;1.80;1.20;;;24.80;1.00;;;;;;5135830;27;20414;-51
2023/08/21 03:04:23;;;;;;;2.50;1.20;;;24.70;1.00;;;;;;5136096;27;20418;-49
2023/08/21 03:06:51;;;;;;;1.63;1.13;;;24.60;1.00;;;;;;5136147;27;20418;-50
2023/08/21 03:09:18;;;;;;;2.15;1.40;;;24.60;1.00;;;;;;5135232;27;20437;-54
2023/08/21 03:11:45;;;;;;;1.60;1.10;;;24.50;1.00;;;;;;5135910;27;20417;-50
2023/08/21 03:14:12;;;;;;;1.40;1.10;;;24.50;1.00;;;;;;5136077;28;20415;-51
2023/08/21 03:16:39;;;;;;;1.90;1.10;;;24.50;1.00;;;;;;5136157;28;20437;-52
2023/08/21 03:19:06;;;;;;;2.55;1.13;;;24.50;1.00;;;;;;5135065;28;20414;-53
2023/08/21 03:21:33;;;;;;;1.70;1.20;;;24.40;1.00;;;;;;5134915;28;20518;-52
2023/08/21 03:24:02;;;;;;;1.45;1.10;;;24.30;1.00;;;;;;5135274;28;20411;-48
2023/08/21 03:26:29;;;;;;;1.90;1.30;;;24.30;1.00;;;;;;5135875;28;20413;-51
2023/08/21 03:28:56;;;;;;;1.40;1.10;;;24.20;1.00;;;;;;5135017;28;20426;-54
2023/08/21 03:31:23;;;;;;;1.60;1.10;;;24.20;1.00;;;;;;5135824;28;20426;-51
2023/08/21 03:33:50;;;;;;;1.60;1.27;;;24.20;1.00;;;;;;5135534;28;20414;-53
2023/08/21 03:36:18;;;;;;;1.80;1.13;;;24.30;1.00;;;;;;5135713;28;20415;-54
2023/08/21 03:38:46;;;;;;;1.73;1.10;;;24.20;1.00;;;;;;5135464;28;20429;-53
2023/08/21 03:41:14;;;;;;;1.80;1.20;;;24.20;1.00;;;;;;5136001;27;20426;-49
2023/08/21 03:43:41;;;;;;;2.10;1.10;;;24.30;1.00;;;;;;5139531;27;20418;-49
2023/08/21 03:46:08;;;;;;;1.60;1.13;;;24.30;1.00;;;;;;5138404;27;20406;-52
2023/08/21 03:48:35;;;;;;;2.20;1.33;;;24.20;1.00;;;;;;5137920;27;20411;-53
2023/08/21 03:51:02;;;;;;;2.58;1.40;;;24.20;1.00;;;;;;5138037;27;20464;-56
2023/08/21 03:53:29;;;;;;;1.83;1.20;;;24.30;1.00;;;;;;5129365;27;20850;-54
2023/08/21 03:55:56;;;;;;;1.63;1.20;;;24.20;1.00;;;;;;5120648;27;20420;-52
2023/08/21 03:58:26;;;;;;;1.50;1.10;;;24.20;1.00;;;;;;5123942;27;20821;-51
2023/08/21 04:00:53;;;;;;;3.38;1.60;;;24.30;1.00;;;;;;5121698;27;20416;-48
2023/08/21 04:03:21;;;;;;;2.00;1.20;;;24.30;1.00;;;;;;5123979;27;20410;-51
2023/08/21 04:05:48;;;;;;;2.10;1.33;;;24.30;1.00;;;;;;5129095;27;20873;-54
2023/08/21 04:08:15;;;;;;;1.70;1.30;;;24.20;1.00;;;;;;5140128;27;20422;-50
2023/08/21 04:10:42;;;;;;;1.50;1.20;;;24.20;1.00;;;;;;5139158;27;20434;-48
2023/08/21 04:13:09;;;;;;;2.80;1.38;;;24.20;1.00;;;;;;5139366;27;20410;-54
2023/08/21 04:15:38;;;;;;;1.60;1.20;;;24.10;1.00;;;;;;5138552;27;20414;-49
2023/08/21 04:18:06;;;;;;;1.80;1.30;;;24.20;1.00;;;;;;5128382;27;20442;-51
2023/08/21 04:20:33;;;;;;;2.08;1.20;;;24.20;1.00;;;;;;5118202;28;20420;-51
2023/08/21 04:23:00;;;;;;;1.58;1.20;;;24.20;1.00;;;;;;5117724;28;20424;-49
2023/08/21 04:25:27;;;;;;;2.17;1.20;;;24.10;1.00;;;;;;5118082;28;20431;-52
2023/08/21 04:27:54;;;;;;;2.15;1.50;;;24.10;1.00;;;;;;5118167;28;20413;-54
2023/08/21 04:30:21;;;;;;;2.92;1.30;;;24.10;1.00;;;;;;5126917;27;20425;-53
2023/08/21 04:32:50;;;;;;;1.50;1.20;;;24.00;1.00;;;;;;5138366;27;20426;-49
2023/08/21 04:35:17;;;;;;;1.70;1.10;;;24.00;1.00;;;;;;5138533;27;20422;-54
2023/08/21 04:37:47;;;;;;;3.28;1.30;;;24.00;1.00;;;;;;5138596;27;20440;-53
2023/08/21 04:40:15;;;;;;;2.00;1.30;;;24.00;1.00;;;;;;5137512;27;20715;-53
2023/08/21 04:42:42;;;;;;;1.90;1.50;;;24.00;1.00;;;;;;5137926;27;20414;-50
2023/08/21 04:45:09;;;;;;;3.80;1.40;;;24.00;1.00;;;;;;5137789;27;20429;-52
2023/08/21 04:47:37;;;;;;;2.20;1.20;;;24.00;1.00;;;;;;5138495;27;20418;-50
2023/08/21 04:50:06;;;;;;;1.60;1.20;;;24.00;1.00;;;;;;5138168;27;20427;-48
2023/08/21 04:52:33;;;;;;;1.93;1.10;;;23.90;1.00;;;;;;5137384;27;20856;-49
2023/08/21 04:55:00;;;;;;;2.60;1.20;;;23.90;1.00;;;;;;5136401;27;20418;-49
2023/08/21 04:57:27;;;;;;;2.08;1.30;;;23.90;1.00;;;;;;5136456;27;20414;-52
2023/08/21 04:59:55;;;;;;;2.30;1.30;;;24.00;1.00;;;;;;5136602;27;20457;-51
2023/08/21 05:02:22;;;;;;;1.70;1.20;;;23.90;1.00;;;;;;5136931;27;20728;-53
2023/08/21 05:04:51;;;;;;;2.10;1.40;;;23.90;1.00;;;;;;5137236;27;20418;-52
2023/08/21 05:07:19;;;;;;;2.40;1.38;;;23.90;1.00;;;;;;5129079;27;20480;-50
2023/08/21 05:09:46;;;;;;;1.80;1.40;;;23.90;1.00;;;;;;5137422;27;20514;-50
2023/08/21 05:12:13;;;;;;;1.70;1.20;;;23.90;1.00;;;;;;5137731;27;20423;-53
2023/08/21 05:14:41;;;;;;;1.83;1.40;;;23.90;1.00;;;;;;5136326;27;20698;-53
2023/08/21 05:17:08;;;;;;;1.80;1.30;;;23.90;1.00;;;;;;5137152;27;20422;-50
2023/08/21 05:19:35;;;;;;;2.57;1.40;;;24.00;1.00;;;;;;5136905;27;20495;-53
2023/08/21 05:22:03;;;;;;;2.80;1.30;;;24.00;1.00;;;;;;5137048;27;20511;-50
2023/08/21 05:24:32;;;;;;;2.00;1.30;;;24.10;1.00;;;;;;5137450;27;20848;-47
2023/08/21 05:26:59;;;;;;;3.03;1.33;;;24.20;1.00;;;;;;5136026;27;20730;-46
2023/08/21 05:29:26;;;;;;;1.65;1.30;;;24.30;1.00;;;;;;5135973;27;20434;-46
2023/08/21 05:31:53;;;;;;;2.10;1.50;;;24.30;1.00;;;;;;5137218;27;20825;-51
2023/08/21 05:34:20;;;;;;;2.28;1.50;;;24.30;1.00;;;;;;5133974;27;20422;-50
2023/08/21 05:36:48;;;;;;;1.70;1.35;;;24.40;1.00;;;;;;5135409;27;20407;-49
2023/08/21 05:39:15;;;;;;;1.77;1.30;;;24.30;1.00;;;;;;5136743;27;20706;-51
2023/08/21 05:41:43;;;;;;;2.00;1.30;;;24.30;1.00;;;;;;5135533;27;20477;-49
2023/08/21 05:44:10;;;;;;;2.80;1.40;;;24.20;1.00;;;;;;5135032;27;20430;-49
2023/08/21 05:46:37;;;;;;;2.00;1.60;;;24.20;1.00;;;;;;5136038;27;20812;-47
2023/08/21 05:49:05;;;;;;;2.20;1.60;;;24.20;1.00;;;;;;5134872;27;20458;-52
2023/08/21 05:51:32;;;;;;;2.90;1.60;;;24.20;1.00;;;;;;5136270;27;20845;-51
2023/08/21 05:53:59;;;;;;;2.35;1.40;;;24.10;1.00;;;;;;5136029;27;20833;-47
2023/08/21 05:56:26;;;;;;;1.70;1.30;;;24.10;1.00;;;;;;5134937;27;20817;-52
2023/08/21 05:58:55;;;;;;;3.10;1.40;;;24.20;1.00;;;;;;5135824;27;20642;-50
2023/08/21 06:01:22;;;;;;;1.90;1.20;;;24.30;1.00;;;;;;5136204;27;20414;-47
2023/08/21 06:03:49;;;;;;;2.10;1.70;;;24.30;1.00;;;;;;5134724;27;20778;-51
2023/08/21 06:06:16;;;;;;;1.80;1.30;;;24.30;1.00;;;;;;5133904;27;20710;-49
2023/08/21 06:08:43;;;;;;;3.20;1.30;;;24.30;1.00;;;;;;5130789;27;20422;-50
2023/08/21 06:11:10;;;;;;;1.88;1.40;;;24.30;1.00;;;;;;5133603;27;20521;-51
2023/08/21 06:13:37;;;;;;;2.03;1.30;;;24.40;1.00;;;;;;5133398;27;20441;-46
2023/08/21 06:16:06;;;;;;;1.70;1.30;;;24.40;1.00;;;;;;5131879;27;20487;-48
2023/08/21 06:18:33;;;;;;;2.30;1.30;;;24.50;1.00;;;;;;5122327;27;20410;-47
2023/08/21 06:21:00;;;;;;;1.80;1.50;;;24.50;1.00;;;;;;5124079;27;20422;-51
2023/08/21 06:23:27;;;;;;;2.40;1.50;;;24.60;1.00;;;;;;5133381;27;20430;-52
2023/08/21 06:25:54;;;;;;;1.90;1.17;;;24.60;1.00;;;;;;5133447;27;20425;-47
2023/08/21 06:28:21;;;;;;;2.00;1.30;;;24.80;1.00;;;;;;5132405;27;20566;-49
2023/08/21 06:30:55;;;;;;;3.10;1.30;;;24.80;1.00;;;;;;5134533;27;20421;-50
2023/08/21 06:33:24;;;;;;;4.13;1.57;;;24.90;1.00;;;;;;5134958;27;20742;-49
2023/08/21 06:35:51;;;;;;;2.70;1.90;;;24.90;1.00;;;;;;5134613;27;20426;-51
2023/08/21 06:38:18;;;;;;;2.20;1.30;;;25.00;99.90;;;;;;5134560;27;20425;-49
2023/08/21 06:40:46;;;;;;;3.50;1.40;;;25.00;99.90;;;;;;5135147;27;20454;-46
2023/08/21 06:43:13;;;;;;;2.20;1.40;;;25.00;99.90;;;;;;5134902;27;20422;-50
2023/08/21 06:45:40;;;;;;;2.17;1.30;;;25.10;99.90;;;;;;5134226;27;20417;-50
2023/08/21 06:48:07;;;;;;;1.60;1.30;;;25.10;99.90;;;;;;5133211;27;20426;-48
2023/08/21 06:50:38;;;;;;;1.60;1.20;;;25.20;99.90;;;;;;5132885;27;21053;-52
2023/08/21 06:53:06;;;;;;;2.20;1.48;;;25.30;99.90;;;;;;5133590;27;20423;-50
2023/08/21 06:55:33;;;;;;;2.13;1.60;;;25.40;99.90;;;;;;5133346;27;20433;-52
2023/08/21 06:58:00;;;;;;;2.70;1.80;;;25.40;34.10;;;;;;5134749;27;20479;-51
2023/08/21 07:00:27;;;;;;;1.63;1.40;;;25.50;99.90;;;;;;5133457;27;20727;-50
2023/08/21 07:02:54;;;;;;;2.50;1.50;;;25.60;10.60;;;;;;5134772;27;20421;-52
2023/08/21 07:05:22;;;;;;;3.55;1.58;;;25.70;1.00;;;;;;5134565;27;20494;-49
2023/08/21 07:07:50;;;;;;;2.80;1.80;;;25.70;1.00;;;;;;5134891;27;20711;-52
2023/08/21 07:10:17;;;;;;;2.90;1.48;;;25.70;1.00;;;;;;5133981;27;20431;-50
2023/08/21 07:12:44;;;;;;;2.17;1.30;;;25.80;99.90;;;;;;5133684;27;20406;-50
2023/08/21 07:15:12;;;;;;;2.53;1.42;;;25.90;99.90;;;;;;5132431;27;20536;-51
2023/08/21 07:17:39;;;;;;;1.67;1.37;;;26.10;1.00;;;;;;5132507;28;20841;-49
2023/08/21 07:20:07;;;;;;;1.50;1.20;;;26.10;1.00;;;;;;5133519;28;20731;-50
2023/08/21 07:22:34;;;;;;;2.23;1.30;;;26.20;1.00;;;;;;5132777;28;20418;-48
2023/08/21 07:25:04;;;;;;;1.63;1.30;;;26.30;99.90;;;;;;5129672;28;20733;-47
2023/08/21 07:27:31;;;;;;;2.00;1.50;;;26.40;1.00;;;;;;5127867;28;20410;-49
2023/08/21 07:29:58;;;;;;;3.70;1.20;;;26.40;1.00;;;;;;5133848;28;20588;-50
2023/08/21 07:32:25;;;;;;;1.90;1.30;;;26.50;99.90;;;;;;5133138;28;20644;-51
2023/08/21 07:34:54;;;;;;;1.80;1.40;;;26.50;99.90;;;;;;5133786;28;20829;-48
2023/08/21 07:37:21;;;;;;;2.83;1.50;;;26.50;99.90;;;;;;5132166;28;20458;-48
2023/08/21 07:39:48;;;;;;;1.60;1.20;;;26.60;56.90;;;;;;5134395;28;20406;-52
2023/08/21 07:42:17;;;;;;;2.10;1.50;;;26.80;1.00;;;;;;5133521;28;20421;-49
2023/08/21 07:44:45;;;;;;;1.70;1.30;;;26.90;1.00;;;;;;5133323;28;20410;-47
2023/08/21 07:47:12;;;;;;;3.05;1.40;;;27.10;99.90;;;;;;5132812;28;20415;-45
2023/08/21 07:49:39;;;;;;;3.20;1.13;;;27.10;34.90;;;;;;5133110;28;20449;-46
2023/08/21 07:52:06;;;;;;;1.80;1.30;;;27.20;1.00;;;;;;5132398;28;20419;-50
2023/08/21 07:54:33;;;;;;;2.20;1.20;;;27.20;1.00;;;;;;5133222;28;20417;-52
2023/08/21 07:57:00;;;;;;;1.83;1.30;;;27.30;1.00;;;;;;5133493;28;20418;-45
2023/08/21 07:59:29;;;;;;;2.30;1.40;;;27.40;1.00;;;;;;5134438;28;20429;-45
2023/08/21 08:01:56;;;;;;;1.88;1.30;;;27.50;1.00;;;;;;5134414;28;20745;-50
2023/08/21 08:04:23;;;;;;;3.08;1.40;;;27.50;1.00;;;;;;5134571;28;20579;-45
2023/08/21 08:06:50;;;;;;;2.90;1.65;;;27.50;1.00;;;;;;5133446;28;20437;-49
2023/08/21 08:09:18;;;;;;;2.30;1.48;;;27.60;99.90;;;;;;5125979;28;20501;-51
2023/08/21 08:11:45;;;;;;;2.20;1.80;;;27.60;99.90;;;;;;5134511;28;20472;-51
2023/08/21 08:14:12;;;;;;;3.30;1.80;;;27.60;1.00;;;;;;5134593;28;20422;-52
2023/08/21 08:16:40;;;;;;;2.50;1.50;;;27.60;1.00;;;;;;5134776;28;20425;-47
2023/08/21 08:19:08;;;;;;;3.78;2.40;;;27.80;1.00;;;;;;5134309;28;20497;-49
2023/08/21 08:21:35;;;;;;;2.35;1.80;;;27.80;1.00;;;;;;5133378;28;20413;-49
2023/08/21 08:24:02;;;;;;;2.38;1.50;;;27.90;1.00;;;;;;5134006;28;20418;-45
2023/08/21 08:26:29;;;;;;;1.70;1.20;;;28.10;99.90;;;;;;5133958;28;20414;-46
2023/08/21 08:28:56;;;;;;;2.22;1.20;;;28.20;99.90;;;;;;5134963;27;20425;-50
2023/08/21 08:31:25;;;;;;;2.55;1.50;;;28.30;99.90;;;;;;5135709;27;20868;-47
2023/08/21 08:33:54;;;;;;;2.38;1.60;;;28.30;99.90;;;;;;5132681;27;20435;-47
2023/08/21 08:36:21;;;;;;;2.30;1.50;;;28.30;99.90;;;;;;5128221;27;20445;-51
2023/08/21 08:38:48;;;;;;;2.40;1.60;;;28.50;42.70;;;;;;5136692;27;20415;-53
2023/08/21 08:41:25;;;;;;;2.47;1.45;;;28.60;1.00;;;;;;5136157;27;20421;-49
2023/08/21 08:43:53;;;;;;;2.28;1.40;;;28.60;1.00;;;;;;5136636;27;20458;-48
2023/08/21 08:46:21;;;;;;;1.60;1.27;;;28.60;1.00;;;;;;5137108;27;20411;-49
2023/08/21 08:48:48;;;;;;;2.08;1.40;;;28.60;1.00;;;;;;5136447;27;20411;-51
2023/08/21 08:51:17;;;;;;;1.75;1.20;;;28.80;1.00;;;;;;5136640;27;20430;-49
2023/08/21 08:53:45;;;;;;;1.85;1.40;;;28.80;1.00;;;;;;5137956;27;20429;-52
2023/08/21 08:56:12;;;;;;;3.00;1.40;;;28.90;1.00;;;;;;5136433;27;20422;-53
2023/08/21 08:58:40;;;;;;;1.90;1.50;;;29.00;1.00;;;;;;5135991;27;20830;-50
2023/08/21 09:01:07;;;;;;;2.90;2.13;;;29.00;1.00;;;;;;5136506;27;20410;-50
2023/08/21 09:03:34;;;;;;;1.80;1.40;;;28.90;1.00;;;;;;5137290;27;20411;-53
2023/08/21 09:06:01;;;;;;;2.22;1.48;;;28.80;1.00;;;;;;5136223;27;20422;-53
2023/08/21 09:08:30;;;;;;;2.25;1.40;;;28.90;1.00;;;;;;5136929;27;20423;-52
2023/08/21 09:11:03;;;;;;;2.38;1.58;;;29.00;1.00;;;;;;5134729;27;20446;-51
2023/08/21 09:13:32;;;;;;;2.70;1.90;;;29.00;1.00;;;;;;5134887;27;20479;-49
2023/08/21 09:16:00;;;;;;;2.80;1.90;;;29.10;1.00;;;;;;5135716;27;20422;-54
2023/08/21 09:18:27;;;;;;;2.40;1.90;;;29.30;1.00;;;;;;5136307;27;20454;-52
2023/08/21 09:20:54;;;;;;;3.80;2.10;;;29.50;99.90;;;;;;5135873;27;20410;-50
2023/08/21 09:23:21;;;;;;;2.05;1.60;;;29.60;99.90;;;;;;5136147;27;20844;-51
2023/08/21 09:25:50;;;;;;;3.60;1.90;;;29.80;99.90;;;;;;5135876;27;20882;-49
2023/08/21 09:28:20;;;;;;;2.30;1.73;;;29.90;99.90;;;;;;5135011;27;20425;-53
2023/08/21 09:30:51;;;;;;;1.90;1.20;;;30.00;99.90;;;;;;5133606;27;20837;-51
2023/08/21 09:33:20;;;;;;;2.10;1.33;;;30.00;99.90;;;;;;5133426;27;20411;-51
2023/08/21 09:35:48;;;;;;;2.25;1.40;;;30.10;99.90;;;;;;5134076;27;20545;-50
2023/08/21 09:38:15;;;;;;;2.45;1.50;;;30.00;99.90;;;;;;5134677;27;20418;-50
2023/08/21 09:40:43;;;;;;;1.67;1.30;;;29.90;99.90;;;;;;5134008;27;20437;-53
2023/08/21 09:43:12;;;;;;;2.45;1.40;;;30.10;99.90;;;;;;5132934;27;20438;-49
2023/08/21 09:45:39;;;;;;;1.85;1.10;;;30.10;75.00;;;;;;5137887;27;20424;-50
2023/08/21 09:48:07;;;;;;;2.05;1.35;;;30.00;55.70;;;;;;5156004;27;20855;-51
2023/08/21 09:50:36;;;;;;;1.97;1.10;;;30.00;63.30;;;;;;5137324;27;20879;-48
2023/08/21 09:53:04;;;;;;;2.30;1.05;;;30.00;69.70;;;;;;5134759;27;20427;-52
2023/08/21 09:55:33;;;;;;;2.35;1.10;;;30.20;15.20;;;;;;5134823;27;21417;-53
2023/08/21 09:58:01;;;;;;;1.80;1.30;;;30.40;1.00;;;;;;5135597;27;20453;-48
2023/08/21 10:00:35;;;;;;;1.50;1.30;;;30.50;1.00;;;;;;5123284;27;20446;-53
2023/08/21 10:03:04;;;;;;;1.40;1.10;;;30.60;1.00;;;;;;5134944;27;20407;-47
2023/08/21 10:05:32;;;;;;;1.60;1.20;;;30.80;1.00;;;;;;5135384;27;20422;-52
2023/08/21 10:08:02;;;;;;;2.30;1.10;;;31.10;1.00;;;;;;5134752;27;20458;-51
2023/08/21 10:10:31;;;;;;;2.35;1.10;;;31.30;1.00;;;;;;5124070;27;20436;-51
2023/08/21 10:12:59;;;;;;;2.40;1.20;;;31.50;1.00;;;;;;5118921;27;20760;-51
2023/08/21 10:15:27;;;;;;;2.60;1.10;;;31.50;1.00;;;;;;5133177;27;20450;-53
2023/08/21 10:17:55;;;;;;;1.75;1.30;;;31.70;1.00;;;;;;5134563;27;20418;-47
2023/08/21 10:20:24;;;;;;;2.30;1.40;;;31.70;1.00;;;;;;5133223;27;20484;-48
2023/08/21 10:22:53;;;;;;;1.70;1.20;;;32.10;1.00;;;;;;5121364;27;20820;-49
2023/08/21 10:25:22;;;;;;;1.70;1.20;;;32.30;1.00;;;;;;5112889;28;20529;-49
2023/08/21 10:27:52;;;;;;;1.80;1.15;;;32.60;1.00;;;;;;5128530;27;20861;-52
2023/08/21 10:30:23;;;;;;;2.00;1.10;;;32.60;1.00;;;;;;5133325;27;20430;-50
2023/08/21 10:32:51;;;;;;;2.17;1.30;;;32.80;1.00;;;;;;5134071;27;20505;-50
2023/08/21 10:35:22;;;;;;;2.30;1.23;;;33.00;1.00;;;;;;5132851;27;20426;-49
2023/08/21 10:38:12;;;;;;;1.88;1.20;;;33.00;1.00;;;;;;5134228;27;20411;-53
2023/08/21 10:40:41;;;;;;;2.03;1.10;;;33.30;1.00;;;;;;5129454;27;20463;-52
2023/08/21 10:43:38;;;;;;;2.08;1.10;;;33.40;1.00;;;;;;5128870;27;20435;-52
2023/08/21 10:46:05;;;;;;;1.40;1.20;;;33.60;1.00;;;;;;5150241;27;20411;-52
2023/08/21 10:48:32;;;;;;;3.00;1.20;;;33.40;1.00;;;;;;5132992;27;20410;-50
2023/08/21 10:51:04;;;;;;;1.80;1.20;;;33.20;1.00;;;;;;5126898;27;20467;-50
2023/08/21 10:53:32;;;;;;;2.22;1.35;;;33.20;1.00;;;;;;5133621;27;20499;-51
2023/08/21 10:56:03;;;;;;;2.92;1.25;;;33.30;1.00;;;;;;5134923;27;20418;-48
2023/08/21 10:58:35;;;;;;;2.15;1.20;;;33.10;1.00;;;;;;5134129;27;20422;-50
2023/08/21 11:01:02;;;;;;;2.00;1.10;;;33.20;1.00;;;;;;5134323;27;20411;-51
2023/08/21 11:03:29;;;;;;;1.90;1.10;;;33.20;1.00;;;;;;5125715;27;20436;-54
2023/08/21 11:06:05;;;;;;;1.60;1.20;;;33.30;1.00;;;;;;5105750;28;20423;-52
2023/08/21 11:08:33;;;;;;;1.60;1.40;;;33.70;1.00;;;;;;5116224;27;20496;-54
2023/08/21 11:11:00;;;;;;;3.03;1.27;;;34.10;1.00;;;;;;5133608;27;20773;-54
2023/08/21 11:13:27;;;;;;;2.22;1.33;;;34.50;1.00;;;;;;5124967;27;20435;-51
2023/08/21 11:16:02;;;;;;;2.10;1.40;;;34.80;1.00;;;;;;5124607;27;20714;-55
2023/08/21 11:18:33;;;;;;;2.20;1.20;;;35.10;1.00;;;;;;5133562;28;20774;-53
2023/08/21 11:21:09;;;;;;;2.55;1.33;;;34.50;1.00;;;;;;5134437;28;20430;-51
2023/08/21 11:23:37;;;;;;;2.00;1.40;;;34.20;1.00;;;;;;5135041;27;20441;-53
2023/08/21 11:26:05;;;;;;;1.63;1.40;;;34.40;1.00;;;;;;5137035;27;20435;-54
2023/08/21 11:28:32;;;;;;;1.80;1.30;;;34.30;1.00;;;;;;5130597;28;20434;-51
2023/08/21 11:31:00;;;;;;;1.67;1.20;;;34.20;1.00;;;;;;5132990;27;20429;-51
2023/08/21 11:33:28;;;;;;;1.73;1.20;;;34.40;1.00;;;;;;5133401;28;20410;-54
2023/08/21 11:35:57;;;;;;;1.30;1.20;;;34.30;1.00;;;;;;5131707;28;20414;-54
2023/08/21 11:38:27;;;;;;;1.60;1.20;;;34.50;1.00;;;;;;5132129;28;20454;-52
2023/08/21 11:40:55;;;;;;;1.63;1.10;;;34.50;1.00;;;;;;5129621;28;20441;-51
2023/08/21 11:43:22;;;;;;;1.70;1.05;;;34.80;1.00;;;;;;5130979;28;20938;-52
2023/08/21 11:45:50;;;;;;;1.67;1.10;;;35.20;1.00;;;;;;5132674;28;20451;-53
2023/08/21 11:48:20;;;;;;;1.73;1.10;;;35.10;1.00;;;;;;5133927;28;20406;-53
2023/08/21 11:50:50;;;;;;;2.53;1.20;;;35.30;1.00;;;;;;5132544;28;20422;-52
2023/08/21 11:53:37;;;;;;;1.90;1.25;;;35.40;1.00;;;;;;5133253;28;20830;-54
2023/08/21 11:56:09;;;;;;;1.40;1.13;;;35.60;1.00;;;;;;5134605;28;20422;-52
2023/08/21 11:58:40;;;;;;;1.90;1.10;;;34.60;1.00;;;;;;5134699;28;20418;-54
2023/08/21 12:01:08;;;;;;;2.17;1.20;;;34.40;1.00;;;;;;5133423;28;20454;-53
2023/08/21 12:03:38;;;;;;;1.70;1.20;;;33.90;1.00;;;;;;5137330;27;20410;-50
2023/08/21 12:06:07;;;;;;;1.70;1.10;;;34.30;1.00;;;;;;5139004;27;20438;-53
2023/08/21 12:08:34;;;;;;;2.25;1.20;;;34.80;1.00;;;;;;5138782;27;20490;-53
2023/08/21 12:11:02;;;;;;;1.83;1.20;;;34.90;1.00;;;;;;5137250;27;20418;-52
2023/08/21 12:13:30;;;;;;;1.75;1.65;;;35.20;1.00;;;;;;5138220;27;20430;-53
2023/08/21 12:15:57;;;;;;;1.90;1.20;;;35.40;1.00;;;;;;5137327;27;20410;-47
2023/08/21 12:18:24;;;;;;;1.60;1.27;;;35.40;1.00;;;;;;5136604;27;20415;-50
2023/08/21 12:20:51;;;;;;;1.80;1.20;;;35.90;1.00;;;;;;5137513;27;20414;-51
2023/08/21 12:23:18;;;;;;;1.50;1.20;;;36.00;1.00;;;;;;5136942;27;20484;-53
2023/08/21 12:25:45;;;;;;;2.50;1.10;;;36.30;1.00;;;;;;5137487;27;20822;-53
2023/08/21 12:28:14;;;;;;;1.85;1.20;;;36.20;1.00;;;;;;5137084;27;20520;-54
2023/08/21 12:30:41;;;;;;;2.00;1.10;;;36.10;1.00;;;;;;5135296;27;20426;-50
2023/08/21 12:33:08;;;;;;;1.60;1.00;;;36.10;1.00;;;;;;5136715;27;20430;-50
2023/08/21 12:35:35;;;;;;;2.13;1.20;;;35.90;1.00;;;;;;5138321;27;20418;-50
2023/08/21 12:38:12;;;;;;;1.20;1.00;;;35.40;1.00;;;;;;5136505;27;20426;-51
2023/08/21 12:40:39;;;;;;;1.75;1.10;;;35.60;1.00;;;;;;5136812;27;20852;-52
2023/08/21 12:43:06;;;;;;;1.73;1.20;;;35.30;1.00;;;;;;5135991;27;20451;-49
2023/08/21 12:45:36;;;;;;;3.40;1.30;;;34.70;1.00;;;;;;5136472;27;20410;-54
2023/08/21 12:48:04;;;;;;;1.33;1.10;;;34.30;1.00;;;;;;5135155;27;20749;-54
2023/08/21 12:50:31;;;;;;;2.30;1.20;;;34.20;1.00;;;;;;5137144;27;20437;-54
2023/08/21 12:52:58;;;;;;;1.60;1.10;;;34.00;1.00;;;;;;5135170;27;20738;-49
2023/08/21 12:55:26;;;;;;;1.80;1.10;;;34.20;1.00;;;;;;5137599;27;20810;-53
2023/08/21 12:57:53;;;;;;;3.10;1.10;;;34.70;1.00;;;;;;5137778;27;20418;-49
2023/08/21 13:00:20;;;;;;;1.80;1.00;;;34.80;1.00;;;;;;5136621;27;20407;-50